Lexington, Oklahoma
Current Conditions -  °F | °C
As of 8:15 AM on Thursday 30 Oct 2014 (Local Time) from KOUN Reporting Station
Scattered Clouds Scattered Clouds  
Wind Chill: 46°   Ceiling: Unl
Heat Index: 48°   Visibility: 10mi
Dew Point: 43°   Wind: 5mph
Humidity: 82%   Direction: 200°SSW
Pressure: 30.14"   Gusts: NA
Location:  35.01°N, 97.34°W
Report Text: KOUN 301315Z AUTO 20004KT 10SM SCT090 09/06 A3014 RMK AO2
Loading
Personal Weather Stations






























Interactive Weather Map
Tropical Storm Tracking
New forecast layout! Learn more

10-Day Weather Forecast

Advertisements
Track Severe Weather on mobile